createdAt,value
2023-04-28T00:00:37.764Z,83.82
2023-04-28T00:03:05.743Z,83.87
2023-04-28T00:05:33.466Z,83.83
2023-04-28T00:08:03.390Z,83.92
2023-04-28T00:10:32.208Z,83.67
2023-04-28T00:13:00.061Z,83.88
2023-04-28T00:15:27.821Z,83.76
2023-04-28T00:17:55.610Z,83.86
2023-04-28T00:20:23.273Z,84.07
2023-04-28T00:22:51.201Z,84.39
2023-04-28T00:25:20.130Z,84.08
2023-04-28T00:27:47.800Z,84.23
2023-04-28T00:30:15.747Z,84.02
2023-04-28T00:32:43.451Z,84.10
2023-04-28T00:35:11.242Z,84.49
2023-04-28T00:37:39.391Z,84.25
2023-04-28T00:40:08.595Z,84.34
2023-04-28T00:42:37.657Z,84.15
2023-04-28T00:45:07.294Z,84.36
2023-04-28T00:47:35.924Z,84.13
2023-04-28T00:50:05.731Z,83.70
2023-04-28T00:52:33.657Z,83.63
2023-04-28T00:55:01.582Z,82.79
2023-04-28T00:57:29.284Z,82.89
2023-04-28T00:59:58.282Z,82.78
2023-04-28T01:02:27.514Z,83.09
2023-04-28T01:04:57.105Z,82.92
2023-04-28T01:07:25.293Z,83.46
2023-04-28T01:09:53.460Z,83.58
2023-04-28T01:12:25.466Z,83.41
2023-04-28T01:14:55.961Z,83.38
2023-04-28T01:17:25.343Z,83.37
2023-04-28T01:19:53.913Z,83.64
2023-04-28T01:22:21.627Z,83.86
2023-04-28T01:24:50.578Z,83.65
2023-04-28T01:27:18.158Z,83.58
2023-04-28T01:29:46.062Z,83.88
2023-04-28T01:32:14.369Z,84.16
2023-04-28T01:34:42.047Z,84.05
2023-04-28T01:37:09.689Z,83.87
2023-04-28T01:39:38.740Z,83.50
2023-04-28T01:42:08.016Z,83.57
2023-04-28T01:44:35.912Z,83.55
2023-04-28T01:47:03.537Z,83.83
2023-04-28T01:49:31.608Z,83.76
2023-04-28T01:51:59.209Z,84.06
2023-04-28T01:54:27.565Z,83.88
2023-04-28T01:56:55.700Z,84.94
2023-04-28T01:59:25.546Z,85.06
2023-04-28T02:01:54.729Z,84.64
2023-04-28T02:04:22.694Z,84.80
2023-04-28T02:06:50.431Z,84.58
2023-04-28T02:09:18.684Z,84.87
2023-04-28T02:11:46.452Z,84.79
2023-04-28T02:14:14.652Z,84.92
2023-04-28T02:16:43.944Z,84.64
2023-04-28T02:19:12.718Z,84.01
2023-04-28T02:21:40.339Z,84.60
2023-04-28T02:24:09.108Z,85.04
2023-04-28T02:26:36.767Z,85.04
2023-04-28T02:29:04.759Z,85.31
2023-04-28T02:31:33.521Z,84.93
2023-04-28T02:34:02.730Z,84.84
2023-04-28T02:36:31.875Z,84.77
2023-04-28T02:38:59.951Z,85.25
2023-04-28T02:41:28.083Z,85.08
2023-04-28T02:43:56.956Z,85.61
2023-04-28T02:46:24.588Z,85.55
2023-04-28T02:48:52.448Z,85.26
2023-04-28T02:51:21.559Z,85.34
2023-04-28T02:53:49.204Z,85.24
2023-04-28T02:56:17.465Z,85.04
2023-04-28T02:58:45.159Z,85.44
2023-04-28T03:01:12.805Z,84.91
2023-04-28T03:03:41.110Z,85.11
2023-04-28T03:06:08.962Z,84.98
2023-04-28T03:08:38.075Z,84.88
2023-04-28T03:11:06.726Z,85.14
2023-04-28T03:13:35.977Z,84.76
2023-04-28T03:16:03.761Z,85.28
2023-04-28T03:18:31.623Z,85.25
2023-04-28T03:20:59.537Z,84.81
2023-04-28T03:23:28.878Z,85.05
2023-04-28T03:25:58.391Z,85.01
2023-04-28T03:28:27.209Z,85.38
2023-04-28T03:30:54.852Z,85.64
2023-04-28T03:33:22.623Z,85.81
2023-04-28T03:35:50.508Z,85.83
2023-04-28T03:38:18.744Z,85.85
2023-04-28T03:40:47.220Z,85.89
2023-04-28T03:43:16.179Z,86.43
2023-04-28T03:46:07.158Z,86.10
2023-04-28T03:48:34.960Z,86.37
2023-04-28T03:51:03.477Z,86.26
2023-04-28T03:53:32.131Z,86.52
2023-04-28T03:56:00.158Z,86.69
2023-04-28T03:58:29.227Z,86.54
2023-04-28T04:00:57.242Z,86.59
2023-04-28T04:03:26.436Z,86.13
2023-04-28T04:05:57.396Z,85.69
2023-04-28T04:08:25.357Z,85.71
2023-04-28T04:10:54.742Z,85.80
2023-04-28T04:13:22.469Z,85.96
2023-04-28T04:15:53.074Z,85.95
2023-04-28T04:18:22.794Z,85.74
2023-04-28T04:21:11.875Z,85.76
2023-04-28T04:23:39.596Z,85.29
2023-04-28T04:26:07.535Z,85.85
2023-04-28T04:28:35.995Z,85.96
2023-04-28T04:31:07.093Z,85.86
2023-04-28T04:33:34.823Z,86.06
2023-04-28T04:36:03.200Z,86.08
2023-04-28T04:38:31.406Z,86.03
2023-04-28T04:41:06.019Z,85.67
2023-04-28T04:43:33.706Z,86.20
2023-04-28T04:46:04.128Z,86.81
2023-04-28T04:48:34.683Z,86.89
2023-04-28T04:51:02.441Z,86.51
2023-04-28T04:53:30.060Z,86.93
2023-04-28T04:55:58.702Z,86.94
2023-04-28T04:58:27.333Z,87.40
2023-04-28T05:01:13.767Z,87.77
2023-04-28T05:03:43.776Z,88.06
2023-04-28T05:06:12.585Z,88.67
2023-04-28T05:08:44.727Z,87.75
2023-04-28T05:11:12.658Z,87.78
2023-04-28T05:13:41.575Z,88.79
2023-04-28T05:16:09.681Z,88.52
2023-04-28T05:19:05.104Z,87.92
2023-04-28T05:21:32.733Z,88.02
2023-04-28T05:24:01.017Z,88.13
2023-04-28T05:26:30.139Z,87.74
2023-04-28T05:29:03.965Z,87.58
2023-04-28T05:31:32.232Z,87.49
2023-04-28T05:34:00.072Z,88.10
2023-04-28T05:36:30.316Z,87.79
2023-04-28T05:38:58.308Z,87.80
2023-04-28T05:41:25.982Z,87.63
2023-04-28T05:43:53.650Z,87.76
2023-04-28T05:46:30.239Z,87.79
2023-04-28T05:49:00.542Z,87.81
2023-04-28T05:51:34.722Z,87.78
2023-04-28T05:54:03.168Z,87.59
2023-04-28T05:56:32.486Z,87.56
2023-04-28T05:59:04.247Z,87.58
2023-04-28T06:01:32.420Z,87.27
2023-04-28T06:04:00.592Z,86.67
2023-04-28T06:06:28.866Z,86.85
2023-04-28T06:08:58.097Z,87.14
2023-04-28T06:11:27.179Z,87.30
2023-04-28T06:13:54.814Z,87.73
2023-04-28T06:16:23.633Z,87.21
2023-04-28T06:18:51.957Z,87.44
2023-04-28T06:21:21.520Z,87.15
2023-04-28T06:23:49.267Z,87.13
2023-04-28T06:26:19.190Z,87.37
2023-04-28T06:28:46.952Z,87.26
2023-04-28T06:31:14.766Z,88.05
2023-04-28T06:33:42.431Z,88.05
2023-04-28T06:36:13.878Z,87.43
2023-04-28T06:38:42.674Z,86.87
2023-04-28T06:41:10.771Z,86.59
2023-04-28T06:43:40.078Z,85.82
2023-04-28T06:46:11.998Z,85.45
2023-04-28T06:48:39.766Z,85.26
2023-04-28T06:51:07.555Z,85.14
2023-04-28T06:53:36.297Z,85.02
2023-04-28T06:56:04.496Z,85.14
2023-04-28T06:58:32.175Z,84.18
2023-04-28T07:01:01.830Z,83.96
2023-04-28T07:03:29.567Z,84.33
2023-04-28T07:05:57.356Z,84.42
2023-04-28T07:08:24.977Z,84.90
2023-04-28T07:10:52.584Z,84.36
2023-04-28T07:13:20.739Z,85.13
2023-04-28T07:15:48.485Z,85.74
2023-04-28T07:18:17.564Z,86.24
2023-04-28T07:20:45.311Z,85.95
2023-04-28T07:23:13.714Z,85.61
2023-04-28T07:25:41.759Z,85.59
2023-04-28T07:28:10.175Z,85.60
2023-04-28T07:30:37.931Z,84.93
2023-04-28T07:33:05.867Z,84.59
2023-04-28T07:35:35.050Z,84.49
2023-04-28T07:38:03.673Z,84.53
2023-04-28T07:40:31.308Z,84.41
2023-04-28T07:42:59.170Z,83.93
2023-04-28T07:45:27.341Z,83.72
2023-04-28T07:47:55.032Z,83.54
2023-04-28T07:50:23.383Z,83.48
2023-04-28T07:52:52.746Z,83.33
2023-04-28T07:55:20.398Z,83.31
2023-04-28T07:57:49.602Z,83.12
2023-04-28T08:00:18.376Z,82.80
2023-04-28T08:02:46.312Z,82.71
2023-04-28T08:05:14.711Z,82.80
2023-04-28T08:07:42.754Z,82.62
2023-04-28T08:10:12.798Z,82.54
2023-04-28T08:12:41.426Z,82.46
2023-04-28T08:15:10.207Z,82.55
2023-04-28T08:17:38.296Z,82.25
2023-04-28T08:20:07.401Z,82.55
2023-04-28T08:22:35.547Z,82.41
2023-04-28T08:25:03.430Z,82.18
2023-04-28T08:27:34.118Z,81.73
2023-04-28T08:30:01.870Z,81.55
2023-04-28T08:32:29.606Z,80.99
2023-04-28T08:34:57.233Z,81.99
2023-04-28T08:37:25.023Z,81.63
2023-04-28T08:39:59.811Z,82.04
2023-04-28T08:42:30.076Z,81.93
2023-04-28T08:45:00.282Z,81.94
2023-04-28T08:47:34.920Z,82.40
2023-04-28T08:50:05.857Z,83.00
2023-04-28T08:52:34.187Z,84.06
2023-04-28T08:55:08.067Z,84.30
2023-04-28T08:57:40.103Z,84.23
2023-04-28T09:00:11.775Z,85.00
2023-04-28T09:02:42.492Z,84.90
2023-04-28T09:05:11.594Z,84.71
2023-04-28T09:07:40.302Z,85.26
2023-04-28T09:10:17.971Z,85.94
2023-04-28T09:12:45.697Z,86.38
2023-04-28T09:15:26.525Z,86.17
2023-04-28T09:17:54.528Z,89.11
2023-04-28T09:20:23.292Z,88.72
2023-04-28T09:22:51.807Z,89.42
2023-04-28T09:25:21.294Z,89.86
2023-04-28T09:27:49.029Z,89.96
2023-04-28T09:30:18.092Z,91.85
2023-04-28T09:32:45.787Z,91.01
2023-04-28T09:35:14.580Z,92.17
2023-04-28T09:37:43.452Z,93.94
2023-04-28T09:40:12.550Z,94.92
2023-04-28T09:42:42.041Z,95.94
2023-04-28T09:45:11.826Z,96.27
2023-04-28T09:47:42.647Z,95.87
2023-04-28T09:50:14.282Z,96.07
2023-04-28T09:52:44.227Z,96.65
2023-04-28T09:55:13.234Z,95.64
2023-04-28T09:57:41.257Z,96.02
2023-04-28T10:00:10.390Z,95.02
2023-04-28T10:05:12.207Z,94.50
2023-04-28T10:07:40.378Z,95.08
2023-04-28T10:10:08.994Z,95.42
2023-04-28T10:12:38.793Z,96.07
2023-04-28T10:15:09.608Z,95.28
2023-04-28T10:17:38.283Z,95.21
2023-04-28T10:20:08.574Z,95.55
2023-04-28T10:23:00.465Z,93.77
2023-04-28T10:25:29.755Z,95.13
2023-04-28T10:27:59.204Z,95.95
2023-04-28T10:30:29.525Z,97.14
2023-04-28T10:33:27.469Z,96.80
2023-04-28T10:35:55.533Z,96.97
2023-04-28T10:38:24.710Z,97.45
2023-04-28T10:40:53.741Z,97.08
2023-04-28T10:43:40.463Z,97.13
2023-04-28T10:46:09.484Z,97.64
2023-04-28T10:48:58.792Z,97.52
2023-04-28T10:51:30.027Z,98.15
2023-04-28T10:54:15.094Z,97.61
2023-04-28T10:57:16.063Z,97.30
2023-04-28T10:59:43.736Z,98.75
2023-04-28T11:02:44.893Z,98.55
2023-04-28T11:05:20.182Z,98.31
2023-04-28T11:08:33.350Z,98.34
2023-04-28T11:11:19.636Z,96.50
2023-04-28T11:13:48.645Z,96.54
2023-04-28T11:16:18.392Z,95.46
2023-04-28T11:19:14.219Z,96.23
2023-04-28T11:21:41.825Z,95.10
2023-04-28T11:24:11.024Z,95.69
2023-04-28T11:26:40.034Z,95.53
2023-04-28T11:29:08.624Z,94.93
2023-04-28T11:31:36.626Z,94.63
2023-04-28T11:34:06.162Z,96.72
2023-04-28T11:36:36.444Z,96.13
2023-04-28T11:39:07.918Z,95.10
2023-04-28T11:41:36.505Z,94.90
2023-04-28T11:44:12.754Z,92.58
2023-04-28T11:46:46.865Z,91.32
2023-04-28T11:49:15.373Z,91.83
2023-04-28T11:51:44.830Z,91.81
2023-04-28T11:54:14.833Z,92.08
2023-04-28T11:56:44.800Z,91.61
2023-04-28T11:59:14.557Z,92.82
2023-04-28T12:01:47.629Z,92.89
2023-04-28T12:04:16.116Z,91.21
2023-04-28T12:06:44.035Z,91.16
2023-04-28T12:09:21.247Z,88.44
2023-04-28T12:11:57.483Z,90.04
2023-04-28T12:14:27.016Z,89.00
2023-04-28T12:16:54.674Z,89.55
2023-04-28T12:19:22.380Z,89.51
2023-04-28T12:22:01.273Z,87.68
2023-04-28T12:24:29.492Z,88.53
2023-04-28T12:27:16.652Z,88.31
2023-04-28T12:29:47.262Z,87.44
2023-04-28T12:32:15.917Z,87.19
2023-04-28T12:34:45.422Z,88.52
2023-04-28T12:37:13.673Z,85.90
2023-04-28T12:39:42.514Z,87.37
2023-04-28T12:42:10.331Z,86.81
2023-04-28T12:44:39.017Z,86.46
2023-04-28T12:47:10.782Z,85.83
2023-04-28T12:49:39.193Z,86.21
2023-04-28T12:52:07.433Z,85.74
2023-04-28T12:54:35.062Z,85.08
2023-04-28T12:57:03.134Z,85.23
2023-04-28T12:59:31.517Z,84.80
2023-04-28T13:01:59.684Z,85.37
2023-04-28T13:04:28.979Z,84.37
2023-04-28T13:06:58.473Z,85.29
2023-04-28T13:09:26.666Z,84.24
2023-04-28T13:11:54.541Z,84.35
2023-04-28T13:14:22.297Z,84.63
2023-04-28T13:16:51.747Z,85.07
2023-04-28T13:19:19.463Z,82.88
2023-04-28T13:21:48.581Z,83.61
2023-04-28T13:24:16.368Z,82.83
2023-04-28T13:26:45.202Z,83.66
2023-04-28T13:29:14.319Z,82.20
2023-04-28T13:31:42.566Z,83.39
2023-04-28T13:34:15.756Z,83.58
2023-04-28T13:36:43.590Z,83.64
2023-04-28T13:39:14.544Z,83.62
2023-04-28T13:41:42.514Z,82.36
2023-04-28T13:44:10.232Z,83.82
2023-04-28T13:46:38.092Z,85.49
2023-04-28T13:49:05.755Z,84.42
2023-04-28T13:51:34.023Z,83.95
2023-04-28T13:54:04.190Z,84.21
2023-04-28T13:56:33.411Z,84.01
2023-04-28T13:59:01.057Z,82.65
2023-04-28T14:01:28.823Z,82.08
2023-04-28T14:03:56.647Z,81.49
2023-04-28T14:06:24.602Z,82.37
2023-04-28T14:08:52.365Z,83.25
2023-04-28T14:11:20.016Z,84.67
2023-04-28T14:13:49.314Z,85.20
2023-04-28T14:16:17.024Z,84.12
2023-04-28T14:18:44.647Z,84.56
2023-04-28T14:21:12.235Z,84.93
2023-04-28T14:23:40.090Z,84.51
2023-04-28T14:26:07.848Z,83.81
2023-04-28T14:28:35.435Z,85.18
2023-04-28T14:31:08.623Z,85.18
2023-04-28T14:33:36.662Z,86.86
2023-04-28T14:36:04.956Z,86.50
2023-04-28T14:38:32.907Z,87.93
2023-04-28T14:41:00.576Z,88.54
2023-04-28T14:43:28.156Z,89.54
2023-04-28T14:45:55.766Z,89.56
2023-04-28T14:48:24.927Z,90.19
2023-04-28T14:50:52.519Z,89.65
2023-04-28T14:53:20.242Z,89.74
2023-04-28T14:55:47.905Z,89.60
2023-04-28T14:58:15.903Z,88.48
2023-04-28T15:00:44.222Z,87.31
2023-04-28T15:03:12.106Z,87.18
2023-04-28T15:05:41.144Z,88.74
2023-04-28T15:08:08.887Z,88.76
2023-04-28T15:10:40.364Z,89.04
2023-04-28T15:13:09.123Z,87.80
2023-04-28T15:15:36.934Z,88.97
2023-04-28T15:18:05.095Z,88.91
2023-04-28T15:20:33.750Z,88.23
2023-04-28T15:23:02.811Z,87.77
2023-04-28T15:25:30.550Z,87.54
2023-04-28T15:27:58.402Z,86.95
2023-04-28T15:30:26.058Z,86.80
2023-04-28T15:32:53.761Z,87.41
2023-04-28T15:35:22.022Z,86.49
2023-04-28T15:37:52.212Z,86.63
2023-04-28T15:40:21.584Z,86.81
2023-04-28T15:42:51.522Z,87.33
2023-04-28T15:45:20.910Z,87.52
2023-04-28T15:47:50.161Z,86.76
2023-04-28T15:50:19.766Z,87.62
2023-04-28T15:52:49.712Z,87.91
2023-04-28T15:55:19.340Z,89.27
2023-04-28T15:57:49.095Z,88.81
2023-04-28T16:00:17.639Z,89.35
2023-04-28T16:02:46.427Z,89.69
2023-04-28T16:05:14.270Z,88.95
2023-04-28T16:07:42.051Z,89.35
2023-04-28T16:10:11.503Z,89.00
2023-04-28T16:12:39.945Z,89.18
2023-04-28T16:15:11.244Z,89.77
2023-04-28T16:17:40.287Z,90.21
2023-04-28T16:20:10.099Z,91.42
2023-04-28T16:22:39.833Z,91.46
2023-04-28T16:25:07.979Z,91.27
2023-04-28T16:27:36.453Z,91.92
2023-04-28T16:30:06.228Z,93.75
2023-04-28T16:32:36.624Z,94.73
2023-04-28T16:35:06.189Z,95.09
2023-04-28T16:37:33.939Z,95.88
2023-04-28T16:40:01.636Z,96.06
2023-04-28T16:42:29.372Z,95.91
2023-04-28T16:44:58.475Z,95.63
2023-04-28T16:47:26.487Z,95.81
2023-04-28T16:49:55.431Z,95.92
2023-04-28T16:52:23.026Z,95.12
2023-04-28T16:54:50.679Z,95.06
2023-04-28T16:57:18.422Z,94.11
2023-04-28T16:59:46.287Z,92.93
2023-04-28T17:02:13.971Z,93.07
2023-04-28T17:04:41.856Z,93.21
2023-04-28T17:07:10.925Z,92.24
2023-04-28T17:09:38.731Z,91.92
2023-04-28T17:12:06.605Z,91.62
2023-04-28T17:14:35.553Z,91.79
2023-04-28T17:17:04.593Z,90.99
2023-04-28T17:19:32.666Z,91.03
2023-04-28T17:22:00.654Z,90.83
2023-04-28T17:24:29.605Z,90.02
2023-04-28T17:26:57.227Z,89.92
2023-04-28T17:29:24.831Z,89.85
2023-04-28T17:31:53.042Z,89.93
2023-04-28T17:34:20.966Z,89.90
2023-04-28T17:36:48.586Z,89.90
2023-04-28T17:39:16.804Z,90.14
2023-04-28T17:41:46.746Z,89.67
2023-04-28T17:44:14.528Z,89.08
2023-04-28T17:46:42.608Z,89.46
2023-04-28T17:49:10.921Z,89.41
2023-04-28T17:51:38.525Z,89.31
2023-04-28T17:54:09.378Z,89.22
2023-04-28T17:56:38.468Z,89.49
2023-04-28T17:59:08.814Z,88.95
2023-04-28T18:01:36.535Z,89.38
2023-04-28T18:04:04.810Z,89.55
2023-04-28T18:06:32.398Z,91.47
2023-04-28T18:09:00.004Z,90.36
2023-04-28T18:11:28.100Z,89.83
2023-04-28T18:13:56.053Z,90.01
2023-04-28T18:16:25.150Z,89.94
2023-04-28T18:18:53.102Z,89.96
2023-04-28T18:21:21.243Z,90.27
2023-04-28T18:23:49.082Z,90.18
2023-04-28T18:26:16.658Z,90.48
2023-04-28T18:28:48.185Z,90.60
2023-04-28T18:31:16.268Z,90.59
2023-04-28T18:33:45.382Z,90.92
2023-04-28T18:36:13.056Z,91.04
2023-04-28T18:38:41.248Z,91.00
2023-04-28T18:41:16.960Z,91.07
2023-04-28T18:43:45.081Z,91.27
2023-04-28T18:46:12.800Z,91.17
2023-04-28T18:48:40.929Z,91.15
2023-04-28T18:51:09.948Z,91.12
2023-04-28T18:53:37.622Z,90.89
2023-04-28T18:56:05.427Z,91.30
2023-04-28T18:58:33.243Z,91.56
2023-04-28T19:01:00.953Z,91.18
2023-04-28T19:03:29.230Z,91.21
2023-04-28T19:05:57.162Z,90.36
2023-04-28T19:08:26.195Z,89.60
2023-04-28T19:10:53.779Z,89.69
2023-04-28T19:13:21.482Z,89.78
2023-04-28T19:15:53.479Z,89.89
2023-04-28T19:18:21.186Z,89.68
2023-04-28T19:20:50.487Z,89.52
2023-04-28T19:23:18.054Z,89.89
2023-04-28T19:25:47.504Z,90.29
2023-04-28T19:28:15.104Z,90.41
2023-04-28T19:30:42.828Z,90.14
2023-04-28T19:33:10.462Z,90.34
2023-04-28T19:35:38.631Z,90.62
2023-04-28T19:38:06.255Z,90.39
2023-04-28T19:40:34.173Z,89.88
2023-04-28T19:43:03.117Z,90.18
2023-04-28T19:45:30.825Z,90.25
2023-04-28T19:47:58.514Z,90.19
2023-04-28T19:50:26.260Z,89.81
2023-04-28T19:52:53.908Z,89.72
2023-04-28T19:55:23.352Z,89.43
2023-04-28T19:57:52.137Z,89.06
2023-04-28T20:00:21.797Z,88.72
2023-04-28T20:02:49.821Z,88.82
2023-04-28T20:05:17.481Z,89.03
2023-04-28T20:07:45.080Z,89.08
2023-04-28T20:10:13.034Z,89.24
2023-04-28T20:12:41.095Z,89.56
2023-04-28T20:15:09.879Z,89.68
2023-04-28T20:17:38.968Z,90.00
2023-04-28T20:20:08.139Z,90.01
2023-04-28T20:22:36.270Z,89.84
2023-04-28T20:25:06.053Z,89.53
2023-04-28T20:27:34.555Z,89.89
2023-04-28T20:30:02.379Z,90.23
2023-04-28T20:32:30.055Z,91.13
2023-04-28T20:34:59.224Z,91.50
2023-04-28T20:37:27.179Z,90.64
2023-04-28T20:39:54.857Z,90.56
2023-04-28T20:42:22.455Z,90.37
2023-04-28T20:44:50.806Z,90.26
2023-04-28T20:47:18.832Z,90.37
2023-04-28T20:49:47.311Z,90.23
2023-04-28T20:52:16.271Z,90.68
2023-04-28T20:54:43.877Z,90.46
2023-04-28T20:57:11.495Z,90.37
2023-04-28T20:59:39.083Z,90.17
2023-04-28T21:02:06.729Z,90.25
2023-04-28T21:04:34.355Z,90.54
2023-04-28T21:07:02.300Z,91.37
2023-04-28T21:09:31.217Z,92.38
2023-04-28T21:11:58.932Z,92.60
2023-04-28T21:14:26.871Z,92.27
2023-04-28T21:16:54.777Z,91.69
2023-04-28T21:19:22.561Z,91.90
2023-04-28T21:21:50.301Z,92.55
2023-04-28T21:24:17.895Z,92.98
2023-04-28T21:26:47.540Z,92.91
2023-04-28T21:29:15.448Z,92.98
2023-04-28T21:31:43.257Z,92.99
2023-04-28T21:34:10.996Z,91.94
2023-04-28T21:36:38.725Z,92.69
2023-04-28T21:39:07.573Z,92.55
2023-04-28T21:41:35.192Z,92.44
2023-04-28T21:44:04.172Z,92.70
2023-04-28T21:46:31.968Z,92.56
2023-04-28T21:48:59.564Z,92.62
2023-04-28T21:51:27.574Z,91.72
2023-04-28T21:53:55.334Z,91.66
2023-04-28T21:56:23.060Z,91.21
2023-04-28T21:58:50.664Z,90.34
2023-04-28T22:01:19.916Z,90.42
2023-04-28T22:03:48.853Z,90.54
2023-04-28T22:06:16.719Z,90.60
2023-04-28T22:08:44.408Z,90.27
2023-04-28T22:11:12.420Z,90.55
2023-04-28T22:13:40.065Z,90.32
2023-04-28T22:16:07.828Z,90.54
2023-04-28T22:18:36.811Z,90.74
2023-04-28T22:21:05.450Z,91.06
2023-04-28T22:23:33.036Z,91.28
2023-04-28T22:26:00.872Z,90.93
2023-04-28T22:28:28.516Z,91.29
2023-04-28T22:30:56.288Z,90.97
2023-04-28T22:33:24.149Z,91.17
2023-04-28T22:35:53.439Z,91.19
2023-04-28T22:38:21.451Z,91.96
2023-04-28T22:40:49.157Z,93.23
2023-04-28T22:43:16.769Z,92.76
2023-04-28T22:45:45.632Z,93.68
2023-04-28T22:48:13.615Z,93.04
2023-04-28T22:50:41.416Z,92.40
2023-04-28T22:53:10.393Z,93.30
2023-04-28T22:55:38.521Z,93.04
2023-04-28T22:58:06.694Z,93.38
2023-04-28T23:00:35.784Z,93.48
2023-04-28T23:03:04.487Z,93.35
2023-04-28T23:05:32.707Z,93.83
2023-04-28T23:08:00.275Z,93.93
2023-04-28T23:10:29.315Z,93.76
2023-04-28T23:12:57.163Z,93.90
2023-04-28T23:15:24.768Z,93.45
2023-04-28T23:17:52.523Z,92.92
2023-04-28T23:20:20.254Z,92.18
2023-04-28T23:22:47.870Z,92.10
2023-04-28T23:25:15.650Z,91.37
2023-04-28T23:27:44.811Z,91.87
2023-04-28T23:30:13.678Z,92.04
2023-04-28T23:32:42.479Z,92.02
2023-04-28T23:35:10.586Z,92.49
2023-04-28T23:37:38.219Z,92.28
2023-04-28T23:40:07.070Z,92.84
2023-04-28T23:42:34.778Z,93.07
2023-04-28T23:45:03.772Z,93.95
2023-04-28T23:47:31.512Z,94.37
2023-04-28T23:49:59.123Z,94.59
2023-04-28T23:52:27.101Z,94.67
2023-04-28T23:54:54.683Z,94.47
2023-04-28T23:57:22.584Z,94.76
2023-04-28T23:59:50.368Z,95.30
